<?xml version="1.0" encoding="UTF-8" standalone="no" ?>
<gpx xmlns="http://www.topografix.com/GPX/1/1" xmlns:xsi="http://www.w3.org/2001/XMLSchema-instance" xsi:schemaLocation="http://www.topografix.com/GPX/1/1 http://www.topografix.com/GPX/1/1/gpx.xsd" version="1.1" creator="VisuGPX - https://www.visugpx.com">
  <metadata>
    <name>Le Canal d'Orléans au départ de Fay-aux-Loges</name>
    <desc><![CDATA[Fay-aux-Loges ]]></desc>
  </metadata>
  <wpt lat="47.92819" lon="2.1401">
    <ele>106</ele>
    <name><![CDATA[Parking près de l']]></name>
    <type><![CDATA[GENERIC]]></type>
  </wpt>
  <wpt lat="47.92554" lon="2.13976">
    <ele>106</ele>
    <name><![CDATA[Rue André Chenal]]></name>
    <type><![CDATA[GENERIC]]></type>
  </wpt>
  <wpt lat="47.92327" lon="2.14401">
    <ele>108</ele>
    <name><![CDATA[Rue de la Bretauche]]></name>
    <type><![CDATA[GENERIC]]></type>
  </wpt>
  <wpt lat="47.93002" lon="2.15729">
    <ele>112</ele>
    <name><![CDATA[À droite vers hameau la Courie]]></name>
    <type><![CDATA[GENERIC]]></type>
  </wpt>
  <wpt lat="47.93379" lon="2.16301">
    <ele>108</ele>
    <name><![CDATA[]]></name>
    <type><![CDATA[GENERIC]]></type>
  </wpt>
  <wpt lat="47.92729" lon="2.16629">
    <ele>117</ele>
    <name><![CDATA[Chemin à gauche vers le Nord]]></name>
    <type><![CDATA[GENERIC]]></type>
  </wpt>
  <wpt lat="47.9251" lon="2.18317">
    <ele>118</ele>
    <name><![CDATA[Chemin dit "Route d'Alger"]]></name>
    <type><![CDATA[GENERIC]]></type>
  </wpt>
  <wpt lat="47.92992" lon="2.19631">
    <ele>109</ele>
    <name><![CDATA[Vers "Carrefour d'Alger"]]></name>
    <type><![CDATA[GENERIC]]></type>
  </wpt>
  <wpt lat="47.93734" lon="2.1742">
    <ele>109</ele>
    <name><![CDATA[Écluse de la Jonchère]]></name>
    <type><![CDATA[GENERIC]]></type>
  </wpt>
  <wpt lat="47.93541" lon="2.14724">
    <ele>104</ele>
    <name><![CDATA[Chemin de halage]]></name>
    <type><![CDATA[GENERIC]]></type>
  </wpt>
  <wpt lat="47.92792" lon="2.13766">
    <ele>104</ele>
    <name><![CDATA[Chemin de halage]]></name>
    <type><![CDATA[GENERIC]]></type>
  </wpt>
  <wpt lat="47.92821" lon="2.14003">
    <ele>106</ele>
    <name><![CDATA[Parking près de l']]></name>
    <type><![CDATA[GENERIC]]></type>
  </wpt>
  <trk>
    <name><![CDATA[Le Canal d'Orléans au départ de Fay-aux-Loges]]></name>
    <trkseg>
      <trkpt lat="47.92821" lon="2.14003">
        <ele>106</ele>
        <time>2020-01-29T13:55:46.000Z</time>
      </trkpt>
      <trkpt lat="47.92805" lon="2.13986">
        <ele>106</ele>
        <time>2020-01-29T13:56:08.000Z</time>
      </trkpt>
      <trkpt lat="47.92788" lon="2.13964">
        <ele>106</ele>
        <time>2020-01-29T13:56:34.000Z</time>
      </trkpt>
      <trkpt lat="47.9277" lon="2.13942">
        <ele>106</ele>
        <time>2020-01-29T13:57:01.000Z</time>
      </trkpt>
      <trkpt lat="47.92748" lon="2.13919">
        <ele>106</ele>
        <time>2020-01-29T13:57:32.000Z</time>
      </trkpt>
      <trkpt lat="47.92752" lon="2.13904">
        <ele>106</ele>
        <time>2020-01-29T13:57:44.000Z</time>
      </trkpt>
      <trkpt lat="47.92762" lon="2.13879">
        <ele>106</ele>
        <time>2020-01-29T13:58:07.000Z</time>
      </trkpt>
      <trkpt lat="47.92773" lon="2.13858">
        <ele>106</ele>
        <time>2020-01-29T13:58:28.000Z</time>
      </trkpt>
      <trkpt lat="47.9276" lon="2.13843">
        <ele>106</ele>
        <time>2020-01-29T13:58:47.000Z</time>
      </trkpt>
      <trkpt lat="47.92749" lon="2.13831">
        <ele>106</ele>
        <time>2020-01-29T13:59:03.000Z</time>
      </trkpt>
      <trkpt lat="47.92762" lon="2.1381">
        <ele>106</ele>
        <time>2020-01-29T13:59:24.000Z</time>
      </trkpt>
      <trkpt lat="47.92778" lon="2.13788">
        <ele>105</ele>
        <time>2020-01-29T13:59:49.000Z</time>
      </trkpt>
      <trkpt lat="47.92792" lon="2.13766">
        <ele>104</ele>
        <time>2020-01-29T14:00:13.000Z</time>
      </trkpt>
      <trkpt lat="47.92806" lon="2.13785">
        <ele>104</ele>
        <time>2020-01-29T14:00:39.000Z</time>
      </trkpt>
      <trkpt lat="47.92824" lon="2.13808">
        <ele>103</ele>
        <time>2020-01-29T14:03:13.000Z</time>
      </trkpt>
      <trkpt lat="47.92841" lon="2.13831">
        <ele>103</ele>
        <time>2020-01-29T14:03:21.000Z</time>
      </trkpt>
      <trkpt lat="47.92861" lon="2.13853">
        <ele>103</ele>
        <time>2020-01-29T14:03:27.000Z</time>
      </trkpt>
      <trkpt lat="47.92882" lon="2.13874">
        <ele>104</ele>
        <time>2020-01-29T14:03:32.000Z</time>
      </trkpt>
      <trkpt lat="47.92904" lon="2.1389">
        <ele>103</ele>
        <time>2020-01-29T14:03:38.000Z</time>
      </trkpt>
      <trkpt lat="47.92925" lon="2.13906">
        <ele>103</ele>
        <time>2020-01-29T14:03:44.000Z</time>
      </trkpt>
      <trkpt lat="47.92942" lon="2.1393">
        <ele>104</ele>
        <time>2020-01-29T14:05:21.000Z</time>
      </trkpt>
      <trkpt lat="47.92956" lon="2.13901">
        <ele>105</ele>
        <time>2020-01-29T14:05:43.000Z</time>
      </trkpt>
      <trkpt lat="47.92978" lon="2.13914">
        <ele>105</ele>
        <time>2020-01-29T14:05:52.000Z</time>
      </trkpt>
      <trkpt lat="47.92994" lon="2.13939">
        <ele>104</ele>
        <time>2020-01-29T14:06:00.000Z</time>
      </trkpt>
      <trkpt lat="47.93014" lon="2.13961">
        <ele>104</ele>
        <time>2020-01-29T14:06:08.000Z</time>
      </trkpt>
      <trkpt lat="47.93032" lon="2.13984">
        <ele>104</ele>
        <time>2020-01-29T14:06:15.000Z</time>
      </trkpt>
      <trkpt lat="47.93051" lon="2.14006">
        <ele>104</ele>
        <time>2020-01-29T14:06:22.000Z</time>
      </trkpt>
      <trkpt lat="47.9307" lon="2.14026">
        <ele>104</ele>
        <time>2020-01-29T14:06:28.000Z</time>
      </trkpt>
      <trkpt lat="47.9309" lon="2.14048">
        <ele>103</ele>
        <time>2020-01-29T14:06:35.000Z</time>
      </trkpt>
      <trkpt lat="47.9311" lon="2.14071">
        <ele>104</ele>
        <time>2020-01-29T14:06:42.000Z</time>
      </trkpt>
      <trkpt lat="47.9313" lon="2.14095">
        <ele>104</ele>
        <time>2020-01-29T14:06:49.000Z</time>
      </trkpt>
      <trkpt lat="47.93149" lon="2.14119">
        <ele>104</ele>
        <time>2020-01-29T14:06:56.000Z</time>
      </trkpt>
      <trkpt lat="47.93165" lon="2.14146">
        <ele>103</ele>
        <time>2020-01-29T14:07:03.000Z</time>
      </trkpt>
      <trkpt lat="47.93181" lon="2.1417">
        <ele>104</ele>
        <time>2020-01-29T14:07:10.000Z</time>
      </trkpt>
      <trkpt lat="47.93198" lon="2.14198">
        <ele>103</ele>
        <time>2020-01-29T14:07:17.000Z</time>
      </trkpt>
      <trkpt lat="47.93215" lon="2.14227">
        <ele>103</ele>
        <time>2020-01-29T14:07:24.000Z</time>
      </trkpt>
      <trkpt lat="47.93231" lon="2.14251">
        <ele>103</ele>
        <time>2020-01-29T14:07:30.000Z</time>
      </trkpt>
      <trkpt lat="47.93245" lon="2.14278">
        <ele>103</ele>
        <time>2020-01-29T14:07:36.000Z</time>
      </trkpt>
      <trkpt lat="47.93258" lon="2.14306">
        <ele>104</ele>
        <time>2020-01-29T14:08:43.000Z</time>
      </trkpt>
      <trkpt lat="47.93272" lon="2.14335">
        <ele>103</ele>
        <time>2020-01-29T14:08:52.000Z</time>
      </trkpt>
      <trkpt lat="47.93287" lon="2.14361">
        <ele>103</ele>
        <time>2020-01-29T14:08:58.000Z</time>
      </trkpt>
      <trkpt lat="47.93301" lon="2.14393">
        <ele>104</ele>
        <time>2020-01-29T14:09:05.000Z</time>
      </trkpt>
      <trkpt lat="47.93314" lon="2.14422">
        <ele>103</ele>
        <time>2020-01-29T14:09:12.000Z</time>
      </trkpt>
      <trkpt lat="47.93328" lon="2.1445">
        <ele>103</ele>
        <time>2020-01-29T14:09:18.000Z</time>
      </trkpt>
      <trkpt lat="47.93341" lon="2.1448">
        <ele>103</ele>
        <time>2020-01-29T14:09:24.000Z</time>
      </trkpt>
      <trkpt lat="47.93355" lon="2.14513">
        <ele>103</ele>
        <time>2020-01-29T14:09:31.000Z</time>
      </trkpt>
      <trkpt lat="47.93369" lon="2.14545">
        <ele>104</ele>
        <time>2020-01-29T14:09:37.000Z</time>
      </trkpt>
      <trkpt lat="47.93383" lon="2.14575">
        <ele>103</ele>
        <time>2020-01-29T14:09:43.000Z</time>
      </trkpt>
      <trkpt lat="47.93397" lon="2.14605">
        <ele>103</ele>
        <time>2020-01-29T14:09:49.000Z</time>
      </trkpt>
      <trkpt lat="47.93412" lon="2.14636">
        <ele>103</ele>
        <time>2020-01-29T14:09:55.000Z</time>
      </trkpt>
      <trkpt lat="47.93425" lon="2.14664">
        <ele>104</ele>
        <time>2020-01-29T14:10:01.000Z</time>
      </trkpt>
      <trkpt lat="47.93441" lon="2.14689">
        <ele>103</ele>
        <time>2020-01-29T14:10:07.000Z</time>
      </trkpt>
      <trkpt lat="47.93458" lon="2.14715">
        <ele>104</ele>
        <time>2020-01-29T14:10:13.000Z</time>
      </trkpt>
      <trkpt lat="47.93477" lon="2.14735">
        <ele>104</ele>
        <time>2020-01-29T14:10:20.000Z</time>
      </trkpt>
      <trkpt lat="47.93498" lon="2.1472">
        <ele>103</ele>
        <time>2020-01-29T14:10:33.000Z</time>
      </trkpt>
      <trkpt lat="47.9352" lon="2.14709">
        <ele>104</ele>
        <time>2020-01-29T14:11:06.000Z</time>
      </trkpt>
      <trkpt lat="47.93541" lon="2.14724">
        <ele>104</ele>
        <time>2020-01-29T14:11:14.000Z</time>
      </trkpt>
      <trkpt lat="47.93545" lon="2.14758">
        <ele>104</ele>
        <time>2020-01-29T14:11:25.000Z</time>
      </trkpt>
      <trkpt lat="47.93554" lon="2.1479">
        <ele>104</ele>
        <time>2020-01-29T14:11:36.000Z</time>
      </trkpt>
      <trkpt lat="47.93567" lon="2.14817">
        <ele>104</ele>
        <time>2020-01-29T14:11:51.000Z</time>
      </trkpt>
      <trkpt lat="47.93585" lon="2.14844">
        <ele>104</ele>
        <time>2020-01-29T14:13:12.000Z</time>
      </trkpt>
      <trkpt lat="47.936" lon="2.14875">
        <ele>104</ele>
        <time>2020-01-29T14:13:19.000Z</time>
      </trkpt>
      <trkpt lat="47.93616" lon="2.14907">
        <ele>104</ele>
        <time>2020-01-29T14:13:25.000Z</time>
      </trkpt>
      <trkpt lat="47.93628" lon="2.14937">
        <ele>104</ele>
        <time>2020-01-29T14:13:31.000Z</time>
      </trkpt>
      <trkpt lat="47.93642" lon="2.14969">
        <ele>104</ele>
        <time>2020-01-29T14:13:37.000Z</time>
      </trkpt>
      <trkpt lat="47.93659" lon="2.15001">
        <ele>104</ele>
        <time>2020-01-29T14:13:44.000Z</time>
      </trkpt>
      <trkpt lat="47.93674" lon="2.15027">
        <ele>104</ele>
        <time>2020-01-29T14:13:50.000Z</time>
      </trkpt>
      <trkpt lat="47.93687" lon="2.15055">
        <ele>104</ele>
        <time>2020-01-29T14:13:56.000Z</time>
      </trkpt>
      <trkpt lat="47.937" lon="2.15083">
        <ele>104</ele>
        <time>2020-01-29T14:14:29.000Z</time>
      </trkpt>
      <trkpt lat="47.93711" lon="2.15112">
        <ele>106</ele>
        <time>2020-01-29T14:19:05.000Z</time>
      </trkpt>
      <trkpt lat="47.93708" lon="2.15146">
        <ele>105</ele>
        <time>2020-01-29T14:19:31.000Z</time>
      </trkpt>
      <trkpt lat="47.93723" lon="2.15175">
        <ele>106</ele>
        <time>2020-01-29T14:20:57.000Z</time>
      </trkpt>
      <trkpt lat="47.93739" lon="2.15199">
        <ele>106</ele>
        <time>2020-01-29T14:21:07.000Z</time>
      </trkpt>
      <trkpt lat="47.9375" lon="2.15231">
        <ele>106</ele>
        <time>2020-01-29T14:21:18.000Z</time>
      </trkpt>
      <trkpt lat="47.93754" lon="2.15267">
        <ele>106</ele>
        <time>2020-01-29T14:21:28.000Z</time>
      </trkpt>
      <trkpt lat="47.93754" lon="2.15301">
        <ele>106</ele>
        <time>2020-01-29T14:21:37.000Z</time>
      </trkpt>
      <trkpt lat="47.93756" lon="2.15338">
        <ele>106</ele>
        <time>2020-01-29T14:21:46.000Z</time>
      </trkpt>
      <trkpt lat="47.93756" lon="2.15374">
        <ele>106</ele>
        <time>2020-01-29T14:23:10.000Z</time>
      </trkpt>
      <trkpt lat="47.93758" lon="2.15409">
        <ele>106</ele>
        <time>2020-01-29T14:23:16.000Z</time>
      </trkpt>
      <trkpt lat="47.93755" lon="2.15445">
        <ele>106</ele>
        <time>2020-01-29T14:23:22.000Z</time>
      </trkpt>
      <trkpt lat="47.93752" lon="2.15479">
        <ele>106</ele>
        <time>2020-01-29T14:23:28.000Z</time>
      </trkpt>
      <trkpt lat="47.93747" lon="2.15515">
        <ele>106</ele>
        <time>2020-01-29T14:23:37.000Z</time>
      </trkpt>
      <trkpt lat="47.93742" lon="2.1555">
        <ele>105</ele>
        <time>2020-01-29T14:23:46.000Z</time>
      </trkpt>
      <trkpt lat="47.93742" lon="2.15586">
        <ele>106</ele>
        <time>2020-01-29T14:23:53.000Z</time>
      </trkpt>
      <trkpt lat="47.93743" lon="2.15622">
        <ele>106</ele>
        <time>2020-01-29T14:25:56.000Z</time>
      </trkpt>
      <trkpt lat="47.93744" lon="2.15656">
        <ele>106</ele>
        <time>2020-01-29T14:26:03.000Z</time>
      </trkpt>
      <trkpt lat="47.93747" lon="2.15693">
        <ele>106</ele>
        <time>2020-01-29T14:26:09.000Z</time>
      </trkpt>
      <trkpt lat="47.93747" lon="2.1573">
        <ele>106</ele>
        <time>2020-01-29T14:26:15.000Z</time>
      </trkpt>
      <trkpt lat="47.93747" lon="2.1577">
        <ele>107</ele>
        <time>2020-01-29T14:26:22.000Z</time>
      </trkpt>
      <trkpt lat="47.93748" lon="2.15808">
        <ele>106</ele>
        <time>2020-01-29T14:26:28.000Z</time>
      </trkpt>
      <trkpt lat="47.93749" lon="2.15844">
        <ele>106</ele>
        <time>2020-01-29T14:26:34.000Z</time>
      </trkpt>
      <trkpt lat="47.93748" lon="2.15882">
        <ele>107</ele>
        <time>2020-01-29T14:26:40.000Z</time>
      </trkpt>
      <trkpt lat="47.93746" lon="2.15917">
        <ele>106</ele>
        <time>2020-01-29T14:26:46.000Z</time>
      </trkpt>
      <trkpt lat="47.93742" lon="2.15956">
        <ele>107</ele>
        <time>2020-01-29T14:26:52.000Z</time>
      </trkpt>
      <trkpt lat="47.9374" lon="2.1599">
        <ele>106</ele>
        <time>2020-01-29T14:26:57.000Z</time>
      </trkpt>
      <trkpt lat="47.93733" lon="2.16029">
        <ele>106</ele>
        <time>2020-01-29T14:27:03.000Z</time>
      </trkpt>
      <trkpt lat="47.93726" lon="2.16062">
        <ele>106</ele>
        <time>2020-01-29T14:27:08.000Z</time>
      </trkpt>
      <trkpt lat="47.93718" lon="2.16095">
        <ele>107</ele>
        <time>2020-01-29T14:27:13.000Z</time>
      </trkpt>
      <trkpt lat="47.93706" lon="2.1613">
        <ele>107</ele>
        <time>2020-01-29T14:27:19.000Z</time>
      </trkpt>
      <trkpt lat="47.93695" lon="2.16167">
        <ele>106</ele>
        <time>2020-01-29T14:27:25.000Z</time>
      </trkpt>
      <trkpt lat="47.93687" lon="2.16198">
        <ele>106</ele>
        <time>2020-01-29T14:27:30.000Z</time>
      </trkpt>
      <trkpt lat="47.93678" lon="2.16236">
        <ele>107</ele>
        <time>2020-01-29T14:27:36.000Z</time>
      </trkpt>
      <trkpt lat="47.9367" lon="2.1627">
        <ele>106</ele>
        <time>2020-01-29T14:27:41.000Z</time>
      </trkpt>
      <trkpt lat="47.93661" lon="2.16302">
        <ele>107</ele>
        <time>2020-01-29T14:27:46.000Z</time>
      </trkpt>
      <trkpt lat="47.93651" lon="2.16333">
        <ele>107</ele>
        <time>2020-01-29T14:27:51.000Z</time>
      </trkpt>
      <trkpt lat="47.93642" lon="2.16364">
        <ele>107</ele>
        <time>2020-01-29T14:27:56.000Z</time>
      </trkpt>
      <trkpt lat="47.93632" lon="2.164">
        <ele>107</ele>
        <time>2020-01-29T14:28:02.000Z</time>
      </trkpt>
      <trkpt lat="47.93628" lon="2.16434">
        <ele>106</ele>
        <time>2020-01-29T14:28:07.000Z</time>
      </trkpt>
      <trkpt lat="47.9362" lon="2.16472">
        <ele>106</ele>
        <time>2020-01-29T14:28:13.000Z</time>
      </trkpt>
      <trkpt lat="47.93615" lon="2.1651">
        <ele>106</ele>
        <time>2020-01-29T14:28:19.000Z</time>
      </trkpt>
      <trkpt lat="47.93613" lon="2.16543">
        <ele>106</ele>
        <time>2020-01-29T14:28:24.000Z</time>
      </trkpt>
      <trkpt lat="47.93613" lon="2.16578">
        <ele>106</ele>
        <time>2020-01-29T14:28:29.000Z</time>
      </trkpt>
      <trkpt lat="47.93616" lon="2.16614">
        <ele>107</ele>
        <time>2020-01-29T14:28:34.000Z</time>
      </trkpt>
      <trkpt lat="47.93616" lon="2.16654">
        <ele>107</ele>
        <time>2020-01-29T14:28:40.000Z</time>
      </trkpt>
      <trkpt lat="47.93617" lon="2.16688">
        <ele>107</ele>
        <time>2020-01-29T14:28:45.000Z</time>
      </trkpt>
      <trkpt lat="47.93617" lon="2.16723">
        <ele>106</ele>
        <time>2020-01-29T14:28:51.000Z</time>
      </trkpt>
      <trkpt lat="47.93622" lon="2.16759">
        <ele>107</ele>
        <time>2020-01-29T14:28:57.000Z</time>
      </trkpt>
      <trkpt lat="47.93626" lon="2.16792">
        <ele>107</ele>
        <time>2020-01-29T14:29:02.000Z</time>
      </trkpt>
      <trkpt lat="47.9363" lon="2.16826">
        <ele>107</ele>
        <time>2020-01-29T14:29:07.000Z</time>
      </trkpt>
      <trkpt lat="47.93636" lon="2.1686">
        <ele>108</ele>
        <time>2020-01-29T14:29:12.000Z</time>
      </trkpt>
      <trkpt lat="47.93646" lon="2.16893">
        <ele>108</ele>
        <time>2020-01-29T14:29:17.000Z</time>
      </trkpt>
      <trkpt lat="47.93654" lon="2.16926">
        <ele>107</ele>
        <time>2020-01-29T14:29:22.000Z</time>
      </trkpt>
      <trkpt lat="47.93664" lon="2.16961">
        <ele>106</ele>
        <time>2020-01-29T14:29:28.000Z</time>
      </trkpt>
      <trkpt lat="47.93674" lon="2.16998">
        <ele>106</ele>
        <time>2020-01-29T14:29:34.000Z</time>
      </trkpt>
      <trkpt lat="47.93684" lon="2.17034">
        <ele>106</ele>
        <time>2020-01-29T14:29:40.000Z</time>
      </trkpt>
      <trkpt lat="47.93694" lon="2.17066">
        <ele>107</ele>
        <time>2020-01-29T14:29:45.000Z</time>
      </trkpt>
      <trkpt lat="47.93703" lon="2.17103">
        <ele>107</ele>
        <time>2020-01-29T14:29:51.000Z</time>
      </trkpt>
      <trkpt lat="47.93713" lon="2.17137">
        <ele>106</ele>
        <time>2020-01-29T14:29:57.000Z</time>
      </trkpt>
      <trkpt lat="47.9372" lon="2.17173">
        <ele>106</ele>
        <time>2020-01-29T14:30:03.000Z</time>
      </trkpt>
      <trkpt lat="47.93727" lon="2.17206">
        <ele>107</ele>
        <time>2020-01-29T14:30:08.000Z</time>
      </trkpt>
      <trkpt lat="47.93732" lon="2.17245">
        <ele>107</ele>
        <time>2020-01-29T14:30:14.000Z</time>
      </trkpt>
      <trkpt lat="47.93737" lon="2.17283">
        <ele>107</ele>
        <time>2020-01-29T14:30:20.000Z</time>
      </trkpt>
      <trkpt lat="47.93742" lon="2.17321">
        <ele>106</ele>
        <time>2020-01-29T14:30:26.000Z</time>
      </trkpt>
      <trkpt lat="47.93746" lon="2.17354">
        <ele>107</ele>
        <time>2020-01-29T14:30:33.000Z</time>
      </trkpt>
      <trkpt lat="47.93745" lon="2.1739">
        <ele>109</ele>
        <time>2020-01-29T14:30:42.000Z</time>
      </trkpt>
      <trkpt lat="47.93734" lon="2.1742">
        <ele>109</ele>
        <time>2020-01-29T14:31:28.000Z</time>
      </trkpt>
      <trkpt lat="47.93739" lon="2.17456">
        <ele>109</ele>
        <time>2020-01-29T14:33:43.000Z</time>
      </trkpt>
      <trkpt lat="47.93742" lon="2.17493">
        <ele>109</ele>
        <time>2020-01-29T14:33:52.000Z</time>
      </trkpt>
      <trkpt lat="47.93743" lon="2.17529">
        <ele>109</ele>
        <time>2020-01-29T14:33:59.000Z</time>
      </trkpt>
      <trkpt lat="47.93744" lon="2.17566">
        <ele>109</ele>
        <time>2020-01-29T14:34:05.000Z</time>
      </trkpt>
      <trkpt lat="47.93743" lon="2.17604">
        <ele>109</ele>
        <time>2020-01-29T14:34:11.000Z</time>
      </trkpt>
      <trkpt lat="47.93742" lon="2.17639">
        <ele>108</ele>
        <time>2020-01-29T14:34:16.000Z</time>
      </trkpt>
      <trkpt lat="47.93741" lon="2.17673">
        <ele>108</ele>
        <time>2020-01-29T14:34:21.000Z</time>
      </trkpt>
      <trkpt lat="47.93738" lon="2.17712">
        <ele>108</ele>
        <time>2020-01-29T14:34:27.000Z</time>
      </trkpt>
      <trkpt lat="47.93731" lon="2.17751">
        <ele>109</ele>
        <time>2020-01-29T14:34:33.000Z</time>
      </trkpt>
      <trkpt lat="47.93723" lon="2.17784">
        <ele>109</ele>
        <time>2020-01-29T14:34:39.000Z</time>
      </trkpt>
      <trkpt lat="47.93716" lon="2.17822">
        <ele>109</ele>
        <time>2020-01-29T14:34:46.000Z</time>
      </trkpt>
      <trkpt lat="47.93708" lon="2.17856">
        <ele>109</ele>
        <time>2020-01-29T14:34:52.000Z</time>
      </trkpt>
      <trkpt lat="47.93701" lon="2.17889">
        <ele>109</ele>
        <time>2020-01-29T14:34:58.000Z</time>
      </trkpt>
      <trkpt lat="47.93694" lon="2.17925">
        <ele>108</ele>
        <time>2020-01-29T14:35:04.000Z</time>
      </trkpt>
      <trkpt lat="47.93686" lon="2.17961">
        <ele>108</ele>
        <time>2020-01-29T14:35:10.000Z</time>
      </trkpt>
      <trkpt lat="47.93679" lon="2.17995">
        <ele>108</ele>
        <time>2020-01-29T14:35:17.000Z</time>
      </trkpt>
      <trkpt lat="47.93672" lon="2.18027">
        <ele>108</ele>
        <time>2020-01-29T14:35:24.000Z</time>
      </trkpt>
      <trkpt lat="47.93664" lon="2.1806">
        <ele>108</ele>
        <time>2020-01-29T14:35:31.000Z</time>
      </trkpt>
      <trkpt lat="47.93657" lon="2.18097">
        <ele>109</ele>
        <time>2020-01-29T14:35:38.000Z</time>
      </trkpt>
      <trkpt lat="47.93653" lon="2.18132">
        <ele>109</ele>
        <time>2020-01-29T14:35:44.000Z</time>
      </trkpt>
      <trkpt lat="47.93647" lon="2.18165">
        <ele>108</ele>
        <time>2020-01-29T14:35:50.000Z</time>
      </trkpt>
      <trkpt lat="47.93642" lon="2.18198">
        <ele>108</ele>
        <time>2020-01-29T14:35:56.000Z</time>
      </trkpt>
      <trkpt lat="47.93639" lon="2.18234">
        <ele>109</ele>
        <time>2020-01-29T14:36:02.000Z</time>
      </trkpt>
      <trkpt lat="47.93634" lon="2.18271">
        <ele>109</ele>
        <time>2020-01-29T14:36:08.000Z</time>
      </trkpt>
      <trkpt lat="47.93629" lon="2.18307">
        <ele>109</ele>
        <time>2020-01-29T14:36:14.000Z</time>
      </trkpt>
      <trkpt lat="47.93625" lon="2.18342">
        <ele>109</ele>
        <time>2020-01-29T14:36:20.000Z</time>
      </trkpt>
      <trkpt lat="47.93621" lon="2.18377">
        <ele>109</ele>
        <time>2020-01-29T14:36:27.000Z</time>
      </trkpt>
      <trkpt lat="47.93617" lon="2.18413">
        <ele>109</ele>
        <time>2020-01-29T14:36:33.000Z</time>
      </trkpt>
      <trkpt lat="47.93612" lon="2.18446">
        <ele>109</ele>
        <time>2020-01-29T14:36:39.000Z</time>
      </trkpt>
      <trkpt lat="47.93607" lon="2.18483">
        <ele>109</ele>
        <time>2020-01-29T14:36:46.000Z</time>
      </trkpt>
      <trkpt lat="47.93604" lon="2.1852">
        <ele>109</ele>
        <time>2020-01-29T14:36:52.000Z</time>
      </trkpt>
      <trkpt lat="47.93599" lon="2.18556">
        <ele>109</ele>
        <time>2020-01-29T14:36:58.000Z</time>
      </trkpt>
      <trkpt lat="47.93595" lon="2.1859">
        <ele>109</ele>
        <time>2020-01-29T14:37:04.000Z</time>
      </trkpt>
      <trkpt lat="47.93591" lon="2.18628">
        <ele>109</ele>
        <time>2020-01-29T14:37:11.000Z</time>
      </trkpt>
      <trkpt lat="47.93588" lon="2.18662">
        <ele>108</ele>
        <time>2020-01-29T14:37:16.000Z</time>
      </trkpt>
      <trkpt lat="47.93582" lon="2.187">
        <ele>108</ele>
        <time>2020-01-29T14:37:23.000Z</time>
      </trkpt>
      <trkpt lat="47.93577" lon="2.18738">
        <ele>109</ele>
        <time>2020-01-29T14:37:29.000Z</time>
      </trkpt>
      <trkpt lat="47.93571" lon="2.18772">
        <ele>109</ele>
        <time>2020-01-29T14:37:35.000Z</time>
      </trkpt>
      <trkpt lat="47.93563" lon="2.18809">
        <ele>109</ele>
        <time>2020-01-29T14:37:42.000Z</time>
      </trkpt>
      <trkpt lat="47.93549" lon="2.18841">
        <ele>109</ele>
        <time>2020-01-29T14:37:48.000Z</time>
      </trkpt>
      <trkpt lat="47.93534" lon="2.18866">
        <ele>109</ele>
        <time>2020-01-29T14:37:53.000Z</time>
      </trkpt>
      <trkpt lat="47.93518" lon="2.1889">
        <ele>108</ele>
        <time>2020-01-29T14:37:59.000Z</time>
      </trkpt>
      <trkpt lat="47.93499" lon="2.18914">
        <ele>109</ele>
        <time>2020-01-29T14:39:52.000Z</time>
      </trkpt>
      <trkpt lat="47.93479" lon="2.18937">
        <ele>109</ele>
        <time>2020-01-29T14:40:01.000Z</time>
      </trkpt>
      <trkpt lat="47.93459" lon="2.18954">
        <ele>109</ele>
        <time>2020-01-29T14:40:08.000Z</time>
      </trkpt>
      <trkpt lat="47.93439" lon="2.18972">
        <ele>109</ele>
        <time>2020-01-29T14:42:32.000Z</time>
      </trkpt>
      <trkpt lat="47.93418" lon="2.18987">
        <ele>109</ele>
        <time>2020-01-29T14:42:40.000Z</time>
      </trkpt>
      <trkpt lat="47.93398" lon="2.19007">
        <ele>109</ele>
        <time>2020-01-29T14:42:46.000Z</time>
      </trkpt>
      <trkpt lat="47.93379" lon="2.19026">
        <ele>109</ele>
        <time>2020-01-29T14:42:52.000Z</time>
      </trkpt>
      <trkpt lat="47.93358" lon="2.19047">
        <ele>109</ele>
        <time>2020-01-29T14:43:00.000Z</time>
      </trkpt>
      <trkpt lat="47.93339" lon="2.19067">
        <ele>109</ele>
        <time>2020-01-29T14:43:06.000Z</time>
      </trkpt>
      <trkpt lat="47.9332" lon="2.19091">
        <ele>109</ele>
        <time>2020-01-29T14:43:12.000Z</time>
      </trkpt>
      <trkpt lat="47.93306" lon="2.19117">
        <ele>109</ele>
        <time>2020-01-29T14:43:19.000Z</time>
      </trkpt>
      <trkpt lat="47.9329" lon="2.19147">
        <ele>108</ele>
        <time>2020-01-29T14:43:26.000Z</time>
      </trkpt>
      <trkpt lat="47.93276" lon="2.19178">
        <ele>109</ele>
        <time>2020-01-29T14:43:33.000Z</time>
      </trkpt>
      <trkpt lat="47.93267" lon="2.19208">
        <ele>109</ele>
        <time>2020-01-29T14:43:39.000Z</time>
      </trkpt>
      <trkpt lat="47.93252" lon="2.19242">
        <ele>109</ele>
        <time>2020-01-29T14:43:46.000Z</time>
      </trkpt>
      <trkpt lat="47.93237" lon="2.19273">
        <ele>109</ele>
        <time>2020-01-29T14:43:52.000Z</time>
      </trkpt>
      <trkpt lat="47.93224" lon="2.19306">
        <ele>109</ele>
        <time>2020-01-29T14:43:59.000Z</time>
      </trkpt>
      <trkpt lat="47.93211" lon="2.19334">
        <ele>109</ele>
        <time>2020-01-29T14:44:04.000Z</time>
      </trkpt>
      <trkpt lat="47.93198" lon="2.19364">
        <ele>109</ele>
        <time>2020-01-29T14:44:10.000Z</time>
      </trkpt>
      <trkpt lat="47.93185" lon="2.19397">
        <ele>109</ele>
        <time>2020-01-29T14:44:16.000Z</time>
      </trkpt>
      <trkpt lat="47.9317" lon="2.19426">
        <ele>109</ele>
        <time>2020-01-29T14:44:22.000Z</time>
      </trkpt>
      <trkpt lat="47.93158" lon="2.19454">
        <ele>109</ele>
        <time>2020-01-29T14:44:27.000Z</time>
      </trkpt>
      <trkpt lat="47.93145" lon="2.19486">
        <ele>109</ele>
        <time>2020-01-29T14:44:34.000Z</time>
      </trkpt>
      <trkpt lat="47.93133" lon="2.19517">
        <ele>109</ele>
        <time>2020-01-29T14:44:40.000Z</time>
      </trkpt>
      <trkpt lat="47.93121" lon="2.19546">
        <ele>109</ele>
        <time>2020-01-29T14:44:47.000Z</time>
      </trkpt>
      <trkpt lat="47.93108" lon="2.19577">
        <ele>109</ele>
        <time>2020-01-29T14:44:55.000Z</time>
      </trkpt>
      <trkpt lat="47.93095" lon="2.19605">
        <ele>110</ele>
        <time>2020-01-29T14:45:02.000Z</time>
      </trkpt>
      <trkpt lat="47.93087" lon="2.1964">
        <ele>110</ele>
        <time>2020-01-29T14:45:10.000Z</time>
      </trkpt>
      <trkpt lat="47.93081" lon="2.19676">
        <ele>110</ele>
        <time>2020-01-29T14:45:18.000Z</time>
      </trkpt>
      <trkpt lat="47.93076" lon="2.19711">
        <ele>111</ele>
        <time>2020-01-29T14:45:29.000Z</time>
      </trkpt>
      <trkpt lat="47.93053" lon="2.19713">
        <ele>108</ele>
        <time>2020-01-29T14:46:24.000Z</time>
      </trkpt>
      <trkpt lat="47.93028" lon="2.19715">
        <ele>109</ele>
        <time>2020-01-29T14:49:47.000Z</time>
      </trkpt>
      <trkpt lat="47.93005" lon="2.19715">
        <ele>110</ele>
        <time>2020-01-29T14:49:52.000Z</time>
      </trkpt>
      <trkpt lat="47.92983" lon="2.19702">
        <ele>109</ele>
        <time>2020-01-29T14:49:59.000Z</time>
      </trkpt>
      <trkpt lat="47.92987" lon="2.19665">
        <ele>109</ele>
        <time>2020-01-29T14:50:32.000Z</time>
      </trkpt>
      <trkpt lat="47.92992" lon="2.19631">
        <ele>109</ele>
        <time>2020-01-29T14:50:39.000Z</time>
      </trkpt>
      <trkpt lat="47.92988" lon="2.19596">
        <ele>109</ele>
        <time>2020-01-29T14:51:47.000Z</time>
      </trkpt>
      <trkpt lat="47.9298" lon="2.19564">
        <ele>109</ele>
        <time>2020-01-29T14:52:01.000Z</time>
      </trkpt>
      <trkpt lat="47.92965" lon="2.19538">
        <ele>110</ele>
        <time>2020-01-29T14:52:12.000Z</time>
      </trkpt>
      <trkpt lat="47.92952" lon="2.19509">
        <ele>110</ele>
        <time>2020-01-29T14:53:21.000Z</time>
      </trkpt>
      <trkpt lat="47.92938" lon="2.19476">
        <ele>110</ele>
        <time>2020-01-29T14:53:29.000Z</time>
      </trkpt>
      <trkpt lat="47.92927" lon="2.19445">
        <ele>110</ele>
        <time>2020-01-29T14:53:35.000Z</time>
      </trkpt>
      <trkpt lat="47.92915" lon="2.19413">
        <ele>110</ele>
        <time>2020-01-29T14:53:42.000Z</time>
      </trkpt>
      <trkpt lat="47.92903" lon="2.1938">
        <ele>111</ele>
        <time>2020-01-29T14:53:49.000Z</time>
      </trkpt>
      <trkpt lat="47.92893" lon="2.19347">
        <ele>111</ele>
        <time>2020-01-29T14:53:56.000Z</time>
      </trkpt>
      <trkpt lat="47.92881" lon="2.19317">
        <ele>110</ele>
        <time>2020-01-29T14:54:03.000Z</time>
      </trkpt>
      <trkpt lat="47.9287" lon="2.19285">
        <ele>111</ele>
        <time>2020-01-29T14:54:09.000Z</time>
      </trkpt>
      <trkpt lat="47.92855" lon="2.19254">
        <ele>111</ele>
        <time>2020-01-29T14:54:16.000Z</time>
      </trkpt>
      <trkpt lat="47.92842" lon="2.19222">
        <ele>111</ele>
        <time>2020-01-29T14:54:23.000Z</time>
      </trkpt>
      <trkpt lat="47.9283" lon="2.19188">
        <ele>110</ele>
        <time>2020-01-29T14:54:30.000Z</time>
      </trkpt>
      <trkpt lat="47.92819" lon="2.19157">
        <ele>111</ele>
        <time>2020-01-29T14:54:36.000Z</time>
      </trkpt>
      <trkpt lat="47.92808" lon="2.19123">
        <ele>111</ele>
        <time>2020-01-29T14:54:43.000Z</time>
      </trkpt>
      <trkpt lat="47.92796" lon="2.19091">
        <ele>111</ele>
        <time>2020-01-29T14:54:50.000Z</time>
      </trkpt>
      <trkpt lat="47.92784" lon="2.19059">
        <ele>111</ele>
        <time>2020-01-29T14:54:58.000Z</time>
      </trkpt>
      <trkpt lat="47.92771" lon="2.19031">
        <ele>111</ele>
        <time>2020-01-29T14:55:05.000Z</time>
      </trkpt>
      <trkpt lat="47.92757" lon="2.19">
        <ele>111</ele>
        <time>2020-01-29T14:55:12.000Z</time>
      </trkpt>
      <trkpt lat="47.92745" lon="2.18971">
        <ele>112</ele>
        <time>2020-01-29T14:55:19.000Z</time>
      </trkpt>
      <trkpt lat="47.92735" lon="2.18937">
        <ele>112</ele>
        <time>2020-01-29T14:55:27.000Z</time>
      </trkpt>
      <trkpt lat="47.92724" lon="2.18907">
        <ele>112</ele>
        <time>2020-01-29T14:55:34.000Z</time>
      </trkpt>
      <trkpt lat="47.92711" lon="2.18876">
        <ele>112</ele>
        <time>2020-01-29T14:55:42.000Z</time>
      </trkpt>
      <trkpt lat="47.92697" lon="2.18844">
        <ele>112</ele>
        <time>2020-01-29T14:55:49.000Z</time>
      </trkpt>
      <trkpt lat="47.92685" lon="2.18811">
        <ele>113</ele>
        <time>2020-01-29T14:55:57.000Z</time>
      </trkpt>
      <trkpt lat="47.92674" lon="2.18778">
        <ele>113</ele>
        <time>2020-01-29T14:56:05.000Z</time>
      </trkpt>
      <trkpt lat="47.92663" lon="2.18748">
        <ele>113</ele>
        <time>2020-01-29T14:56:12.000Z</time>
      </trkpt>
      <trkpt lat="47.92648" lon="2.18717">
        <ele>114</ele>
        <time>2020-01-29T14:56:20.000Z</time>
      </trkpt>
      <trkpt lat="47.92636" lon="2.18686">
        <ele>114</ele>
        <time>2020-01-29T14:56:28.000Z</time>
      </trkpt>
      <trkpt lat="47.92625" lon="2.18656">
        <ele>115</ele>
        <time>2020-01-29T14:56:35.000Z</time>
      </trkpt>
      <trkpt lat="47.92613" lon="2.18627">
        <ele>115</ele>
        <time>2020-01-29T14:56:42.000Z</time>
      </trkpt>
      <trkpt lat="47.92604" lon="2.18596">
        <ele>116</ele>
        <time>2020-01-29T14:56:50.000Z</time>
      </trkpt>
      <trkpt lat="47.9259" lon="2.18564">
        <ele>116</ele>
        <time>2020-01-29T14:56:58.000Z</time>
      </trkpt>
      <trkpt lat="47.92579" lon="2.18531">
        <ele>116</ele>
        <time>2020-01-29T14:57:05.000Z</time>
      </trkpt>
      <trkpt lat="47.92567" lon="2.185">
        <ele>116</ele>
        <time>2020-01-29T14:57:13.000Z</time>
      </trkpt>
      <trkpt lat="47.92554" lon="2.18473">
        <ele>116</ele>
        <time>2020-01-29T14:57:20.000Z</time>
      </trkpt>
      <trkpt lat="47.92542" lon="2.18443">
        <ele>116</ele>
        <time>2020-01-29T14:57:27.000Z</time>
      </trkpt>
      <trkpt lat="47.92531" lon="2.18412">
        <ele>116</ele>
        <time>2020-01-29T14:57:34.000Z</time>
      </trkpt>
      <trkpt lat="47.92521" lon="2.18382">
        <ele>117</ele>
        <time>2020-01-29T14:57:42.000Z</time>
      </trkpt>
      <trkpt lat="47.92514" lon="2.1835">
        <ele>117</ele>
        <time>2020-01-29T14:57:53.000Z</time>
      </trkpt>
      <trkpt lat="47.9251" lon="2.18317">
        <ele>118</ele>
        <time>2020-01-29T14:58:05.000Z</time>
      </trkpt>
      <trkpt lat="47.9251" lon="2.18284">
        <ele>119</ele>
        <time>2020-01-29T14:58:17.000Z</time>
      </trkpt>
      <trkpt lat="47.92503" lon="2.18265">
        <ele>118</ele>
        <time>2020-01-29T15:00:41.000Z</time>
      </trkpt>
      <trkpt lat="47.925" lon="2.1823">
        <ele>118</ele>
        <time>2020-01-29T15:00:51.000Z</time>
      </trkpt>
      <trkpt lat="47.925" lon="2.18195">
        <ele>119</ele>
        <time>2020-01-29T15:01:01.000Z</time>
      </trkpt>
      <trkpt lat="47.92501" lon="2.18161">
        <ele>119</ele>
        <time>2020-01-29T15:01:09.000Z</time>
      </trkpt>
      <trkpt lat="47.92501" lon="2.18127">
        <ele>119</ele>
        <time>2020-01-29T15:01:17.000Z</time>
      </trkpt>
      <trkpt lat="47.925" lon="2.18093">
        <ele>118</ele>
        <time>2020-01-29T15:01:25.000Z</time>
      </trkpt>
      <trkpt lat="47.92499" lon="2.18059">
        <ele>118</ele>
        <time>2020-01-29T15:01:33.000Z</time>
      </trkpt>
      <trkpt lat="47.92497" lon="2.18024">
        <ele>119</ele>
        <time>2020-01-29T15:01:41.000Z</time>
      </trkpt>
      <trkpt lat="47.92496" lon="2.17987">
        <ele>119</ele>
        <time>2020-01-29T15:01:50.000Z</time>
      </trkpt>
      <trkpt lat="47.92499" lon="2.17953">
        <ele>119</ele>
        <time>2020-01-29T15:01:58.000Z</time>
      </trkpt>
      <trkpt lat="47.92497" lon="2.17918">
        <ele>119</ele>
        <time>2020-01-29T15:02:06.000Z</time>
      </trkpt>
      <trkpt lat="47.92495" lon="2.17882">
        <ele>119</ele>
        <time>2020-01-29T15:02:14.000Z</time>
      </trkpt>
      <trkpt lat="47.92493" lon="2.17845">
        <ele>119</ele>
        <time>2020-01-29T15:02:23.000Z</time>
      </trkpt>
      <trkpt lat="47.92491" lon="2.17809">
        <ele>119</ele>
        <time>2020-01-29T15:02:30.000Z</time>
      </trkpt>
      <trkpt lat="47.92488" lon="2.17774">
        <ele>119</ele>
        <time>2020-01-29T15:02:38.000Z</time>
      </trkpt>
      <trkpt lat="47.92487" lon="2.17736">
        <ele>119</ele>
        <time>2020-01-29T15:02:47.000Z</time>
      </trkpt>
      <trkpt lat="47.92486" lon="2.17703">
        <ele>120</ele>
        <time>2020-01-29T15:02:55.000Z</time>
      </trkpt>
      <trkpt lat="47.92484" lon="2.17669">
        <ele>120</ele>
        <time>2020-01-29T15:03:03.000Z</time>
      </trkpt>
      <trkpt lat="47.92484" lon="2.17632">
        <ele>120</ele>
        <time>2020-01-29T15:03:11.000Z</time>
      </trkpt>
      <trkpt lat="47.92483" lon="2.17597">
        <ele>120</ele>
        <time>2020-01-29T15:03:19.000Z</time>
      </trkpt>
      <trkpt lat="47.92482" lon="2.17562">
        <ele>120</ele>
        <time>2020-01-29T15:03:26.000Z</time>
      </trkpt>
      <trkpt lat="47.92481" lon="2.17526">
        <ele>120</ele>
        <time>2020-01-29T15:03:33.000Z</time>
      </trkpt>
      <trkpt lat="47.9248" lon="2.17488">
        <ele>120</ele>
        <time>2020-01-29T15:03:41.000Z</time>
      </trkpt>
      <trkpt lat="47.92479" lon="2.17452">
        <ele>120</ele>
        <time>2020-01-29T15:03:49.000Z</time>
      </trkpt>
      <trkpt lat="47.92477" lon="2.17415">
        <ele>121</ele>
        <time>2020-01-29T15:03:57.000Z</time>
      </trkpt>
      <trkpt lat="47.92477" lon="2.17381">
        <ele>121</ele>
        <time>2020-01-29T15:04:04.000Z</time>
      </trkpt>
      <trkpt lat="47.92476" lon="2.17345">
        <ele>121</ele>
        <time>2020-01-29T15:04:11.000Z</time>
      </trkpt>
      <trkpt lat="47.92474" lon="2.1731">
        <ele>121</ele>
        <time>2020-01-29T15:04:19.000Z</time>
      </trkpt>
      <trkpt lat="47.92473" lon="2.17275">
        <ele>121</ele>
        <time>2020-01-29T15:04:27.000Z</time>
      </trkpt>
      <trkpt lat="47.9247" lon="2.17241">
        <ele>121</ele>
        <time>2020-01-29T15:04:34.000Z</time>
      </trkpt>
      <trkpt lat="47.9247" lon="2.17207">
        <ele>121</ele>
        <time>2020-01-29T15:04:42.000Z</time>
      </trkpt>
      <trkpt lat="47.9247" lon="2.1717">
        <ele>120</ele>
        <time>2020-01-29T15:04:51.000Z</time>
      </trkpt>
      <trkpt lat="47.9247" lon="2.17132">
        <ele>120</ele>
        <time>2020-01-29T15:04:59.000Z</time>
      </trkpt>
      <trkpt lat="47.92472" lon="2.17096">
        <ele>119</ele>
        <time>2020-01-29T15:05:07.000Z</time>
      </trkpt>
      <trkpt lat="47.92471" lon="2.17063">
        <ele>119</ele>
        <time>2020-01-29T15:05:15.000Z</time>
      </trkpt>
      <trkpt lat="47.92469" lon="2.17026">
        <ele>120</ele>
        <time>2020-01-29T15:05:23.000Z</time>
      </trkpt>
      <trkpt lat="47.92465" lon="2.16989">
        <ele>119</ele>
        <time>2020-01-29T15:05:31.000Z</time>
      </trkpt>
      <trkpt lat="47.92464" lon="2.1695">
        <ele>119</ele>
        <time>2020-01-29T15:05:39.000Z</time>
      </trkpt>
      <trkpt lat="47.92462" lon="2.16914">
        <ele>118</ele>
        <time>2020-01-29T15:05:47.000Z</time>
      </trkpt>
      <trkpt lat="47.92462" lon="2.16877">
        <ele>118</ele>
        <time>2020-01-29T15:05:55.000Z</time>
      </trkpt>
      <trkpt lat="47.9246" lon="2.16841">
        <ele>118</ele>
        <time>2020-01-29T15:06:03.000Z</time>
      </trkpt>
      <trkpt lat="47.92459" lon="2.16807">
        <ele>118</ele>
        <time>2020-01-29T15:06:11.000Z</time>
      </trkpt>
      <trkpt lat="47.92459" lon="2.16773">
        <ele>118</ele>
        <time>2020-01-29T15:06:18.000Z</time>
      </trkpt>
      <trkpt lat="47.92456" lon="2.16739">
        <ele>117</ele>
        <time>2020-01-29T15:06:27.000Z</time>
      </trkpt>
      <trkpt lat="47.92456" lon="2.16705">
        <ele>117</ele>
        <time>2020-01-29T15:06:37.000Z</time>
      </trkpt>
      <trkpt lat="47.92463" lon="2.16673">
        <ele>117</ele>
        <time>2020-01-29T15:06:47.000Z</time>
      </trkpt>
      <trkpt lat="47.92467" lon="2.16638">
        <ele>118</ele>
        <time>2020-01-29T15:06:56.000Z</time>
      </trkpt>
      <trkpt lat="47.92489" lon="2.16624">
        <ele>118</ele>
        <time>2020-01-29T15:07:09.000Z</time>
      </trkpt>
      <trkpt lat="47.92511" lon="2.16618">
        <ele>118</ele>
        <time>2020-01-29T15:07:18.000Z</time>
      </trkpt>
      <trkpt lat="47.92536" lon="2.16611">
        <ele>118</ele>
        <time>2020-01-29T15:07:27.000Z</time>
      </trkpt>
      <trkpt lat="47.92558" lon="2.16606">
        <ele>118</ele>
        <time>2020-01-29T15:07:34.000Z</time>
      </trkpt>
      <trkpt lat="47.92583" lon="2.166">
        <ele>118</ele>
        <time>2020-01-29T15:07:42.000Z</time>
      </trkpt>
      <trkpt lat="47.92608" lon="2.16595">
        <ele>118</ele>
        <time>2020-01-29T15:07:50.000Z</time>
      </trkpt>
      <trkpt lat="47.92631" lon="2.1659">
        <ele>117</ele>
        <time>2020-01-29T15:07:57.000Z</time>
      </trkpt>
      <trkpt lat="47.92655" lon="2.16584">
        <ele>117</ele>
        <time>2020-01-29T15:08:06.000Z</time>
      </trkpt>
      <trkpt lat="47.92679" lon="2.16578">
        <ele>117</ele>
        <time>2020-01-29T15:08:18.000Z</time>
      </trkpt>
      <trkpt lat="47.92703" lon="2.16581">
        <ele>118</ele>
        <time>2020-01-29T15:08:34.000Z</time>
      </trkpt>
      <trkpt lat="47.92707" lon="2.16614">
        <ele>117</ele>
        <time>2020-01-29T15:08:44.000Z</time>
      </trkpt>
      <trkpt lat="47.92709" lon="2.16648">
        <ele>117</ele>
        <time>2020-01-29T15:08:54.000Z</time>
      </trkpt>
      <trkpt lat="47.92729" lon="2.16629">
        <ele>117</ele>
        <time>2020-01-29T15:09:40.000Z</time>
      </trkpt>
      <trkpt lat="47.92752" lon="2.16623">
        <ele>117</ele>
        <time>2020-01-29T15:09:50.000Z</time>
      </trkpt>
      <trkpt lat="47.92775" lon="2.16617">
        <ele>117</ele>
        <time>2020-01-29T15:09:57.000Z</time>
      </trkpt>
      <trkpt lat="47.928" lon="2.16614">
        <ele>117</ele>
        <time>2020-01-29T15:10:06.000Z</time>
      </trkpt>
      <trkpt lat="47.92825" lon="2.1661">
        <ele>117</ele>
        <time>2020-01-29T15:10:15.000Z</time>
      </trkpt>
      <trkpt lat="47.92847" lon="2.16608">
        <ele>116</ele>
        <time>2020-01-29T15:10:23.000Z</time>
      </trkpt>
      <trkpt lat="47.92871" lon="2.16608">
        <ele>116</ele>
        <time>2020-01-29T15:10:35.000Z</time>
      </trkpt>
      <trkpt lat="47.92894" lon="2.16609">
        <ele>115</ele>
        <time>2020-01-29T15:10:44.000Z</time>
      </trkpt>
      <trkpt lat="47.92917" lon="2.16606">
        <ele>114</ele>
        <time>2020-01-29T15:10:51.000Z</time>
      </trkpt>
      <trkpt lat="47.92939" lon="2.1659">
        <ele>113</ele>
        <time>2020-01-29T15:10:58.000Z</time>
      </trkpt>
      <trkpt lat="47.92961" lon="2.16579">
        <ele>113</ele>
        <time>2020-01-29T15:11:04.000Z</time>
      </trkpt>
      <trkpt lat="47.92985" lon="2.16564">
        <ele>112</ele>
        <time>2020-01-29T15:11:11.000Z</time>
      </trkpt>
      <trkpt lat="47.93007" lon="2.16552">
        <ele>112</ele>
        <time>2020-01-29T15:11:18.000Z</time>
      </trkpt>
      <trkpt lat="47.9303" lon="2.16538">
        <ele>111</ele>
        <time>2020-01-29T15:11:26.000Z</time>
      </trkpt>
      <trkpt lat="47.93053" lon="2.16524">
        <ele>111</ele>
        <time>2020-01-29T15:11:33.000Z</time>
      </trkpt>
      <trkpt lat="47.93075" lon="2.16509">
        <ele>111</ele>
        <time>2020-01-29T15:11:40.000Z</time>
      </trkpt>
      <trkpt lat="47.93095" lon="2.16491">
        <ele>111</ele>
        <time>2020-01-29T15:11:47.000Z</time>
      </trkpt>
      <trkpt lat="47.93117" lon="2.16475">
        <ele>110</ele>
        <time>2020-01-29T15:11:54.000Z</time>
      </trkpt>
      <trkpt lat="47.93139" lon="2.16459">
        <ele>110</ele>
        <time>2020-01-29T15:12:01.000Z</time>
      </trkpt>
      <trkpt lat="47.93161" lon="2.16443">
        <ele>110</ele>
        <time>2020-01-29T15:12:08.000Z</time>
      </trkpt>
      <trkpt lat="47.93183" lon="2.16428">
        <ele>110</ele>
        <time>2020-01-29T15:12:17.000Z</time>
      </trkpt>
      <trkpt lat="47.93206" lon="2.16412">
        <ele>110</ele>
        <time>2020-01-29T15:12:25.000Z</time>
      </trkpt>
      <trkpt lat="47.93227" lon="2.16398">
        <ele>110</ele>
        <time>2020-01-29T15:12:32.000Z</time>
      </trkpt>
      <trkpt lat="47.93249" lon="2.16384">
        <ele>110</ele>
        <time>2020-01-29T15:12:40.000Z</time>
      </trkpt>
      <trkpt lat="47.9327" lon="2.16371">
        <ele>109</ele>
        <time>2020-01-29T15:12:50.000Z</time>
      </trkpt>
      <trkpt lat="47.93291" lon="2.16356">
        <ele>108</ele>
        <time>2020-01-29T15:13:00.000Z</time>
      </trkpt>
      <trkpt lat="47.93313" lon="2.1634">
        <ele>109</ele>
        <time>2020-01-29T15:13:09.000Z</time>
      </trkpt>
      <trkpt lat="47.93334" lon="2.16323">
        <ele>109</ele>
        <time>2020-01-29T15:13:18.000Z</time>
      </trkpt>
      <trkpt lat="47.93357" lon="2.16314">
        <ele>108</ele>
        <time>2020-01-29T15:13:28.000Z</time>
      </trkpt>
      <trkpt lat="47.93379" lon="2.16301">
        <ele>108</ele>
        <time>2020-01-29T15:14:00.000Z</time>
      </trkpt>
      <trkpt lat="47.93364" lon="2.16276">
        <ele>108</ele>
        <time>2020-01-29T15:17:56.000Z</time>
      </trkpt>
      <trkpt lat="47.93344" lon="2.16254">
        <ele>108</ele>
        <time>2020-01-29T15:18:06.000Z</time>
      </trkpt>
      <trkpt lat="47.93326" lon="2.16231">
        <ele>108</ele>
        <time>2020-01-29T15:18:14.000Z</time>
      </trkpt>
      <trkpt lat="47.93307" lon="2.16209">
        <ele>109</ele>
        <time>2020-01-29T15:18:22.000Z</time>
      </trkpt>
      <trkpt lat="47.93289" lon="2.16188">
        <ele>109</ele>
        <time>2020-01-29T15:18:30.000Z</time>
      </trkpt>
      <trkpt lat="47.93268" lon="2.16166">
        <ele>108</ele>
        <time>2020-01-29T15:18:38.000Z</time>
      </trkpt>
      <trkpt lat="47.93247" lon="2.16148">
        <ele>108</ele>
        <time>2020-01-29T15:18:45.000Z</time>
      </trkpt>
      <trkpt lat="47.93226" lon="2.16131">
        <ele>108</ele>
        <time>2020-01-29T15:18:52.000Z</time>
      </trkpt>
      <trkpt lat="47.93204" lon="2.16115">
        <ele>108</ele>
        <time>2020-01-29T15:19:00.000Z</time>
      </trkpt>
      <trkpt lat="47.93183" lon="2.16101">
        <ele>108</ele>
        <time>2020-01-29T15:19:08.000Z</time>
      </trkpt>
      <trkpt lat="47.9316" lon="2.16088">
        <ele>108</ele>
        <time>2020-01-29T15:19:18.000Z</time>
      </trkpt>
      <trkpt lat="47.93138" lon="2.16072">
        <ele>108</ele>
        <time>2020-01-29T15:19:26.000Z</time>
      </trkpt>
      <trkpt lat="47.93119" lon="2.16048">
        <ele>108</ele>
        <time>2020-01-29T15:19:34.000Z</time>
      </trkpt>
      <trkpt lat="47.93102" lon="2.16021">
        <ele>109</ele>
        <time>2020-01-29T15:19:42.000Z</time>
      </trkpt>
      <trkpt lat="47.9309" lon="2.15991">
        <ele>110</ele>
        <time>2020-01-29T15:19:50.000Z</time>
      </trkpt>
      <trkpt lat="47.93083" lon="2.15957">
        <ele>110</ele>
        <time>2020-01-29T15:19:59.000Z</time>
      </trkpt>
      <trkpt lat="47.9308" lon="2.15921">
        <ele>110</ele>
        <time>2020-01-29T15:20:09.000Z</time>
      </trkpt>
      <trkpt lat="47.93077" lon="2.15888">
        <ele>111</ele>
        <time>2020-01-29T15:20:18.000Z</time>
      </trkpt>
      <trkpt lat="47.93072" lon="2.15852">
        <ele>111</ele>
        <time>2020-01-29T15:20:27.000Z</time>
      </trkpt>
      <trkpt lat="47.93068" lon="2.15818">
        <ele>110</ele>
        <time>2020-01-29T15:20:37.000Z</time>
      </trkpt>
      <trkpt lat="47.93061" lon="2.15783">
        <ele>111</ele>
        <time>2020-01-29T15:20:51.000Z</time>
      </trkpt>
      <trkpt lat="47.93045" lon="2.15755">
        <ele>112</ele>
        <time>2020-01-29T15:21:02.000Z</time>
      </trkpt>
      <trkpt lat="47.93024" lon="2.15738">
        <ele>112</ele>
        <time>2020-01-29T15:21:15.000Z</time>
      </trkpt>
      <trkpt lat="47.93002" lon="2.15729">
        <ele>112</ele>
        <time>2020-01-29T15:21:26.000Z</time>
      </trkpt>
      <trkpt lat="47.93" lon="2.15694">
        <ele>112</ele>
        <time>2020-01-29T15:21:35.000Z</time>
      </trkpt>
      <trkpt lat="47.93002" lon="2.15657">
        <ele>113</ele>
        <time>2020-01-29T15:21:44.000Z</time>
      </trkpt>
      <trkpt lat="47.93003" lon="2.15623">
        <ele>113</ele>
        <time>2020-01-29T15:21:53.000Z</time>
      </trkpt>
      <trkpt lat="47.93003" lon="2.15588">
        <ele>113</ele>
        <time>2020-01-29T15:22:01.000Z</time>
      </trkpt>
      <trkpt lat="47.93007" lon="2.15554">
        <ele>112</ele>
        <time>2020-01-29T15:22:10.000Z</time>
      </trkpt>
      <trkpt lat="47.93016" lon="2.15521">
        <ele>112</ele>
        <time>2020-01-29T15:22:18.000Z</time>
      </trkpt>
      <trkpt lat="47.93031" lon="2.15494">
        <ele>112</ele>
        <time>2020-01-29T15:22:25.000Z</time>
      </trkpt>
      <trkpt lat="47.93045" lon="2.15466">
        <ele>111</ele>
        <time>2020-01-29T15:22:33.000Z</time>
      </trkpt>
      <trkpt lat="47.93061" lon="2.15438">
        <ele>111</ele>
        <time>2020-01-29T15:22:42.000Z</time>
      </trkpt>
      <trkpt lat="47.93075" lon="2.1541">
        <ele>111</ele>
        <time>2020-01-29T15:22:52.000Z</time>
      </trkpt>
      <trkpt lat="47.93068" lon="2.15377">
        <ele>110</ele>
        <time>2020-01-29T15:23:04.000Z</time>
      </trkpt>
      <trkpt lat="47.93057" lon="2.15346">
        <ele>110</ele>
        <time>2020-01-29T15:23:13.000Z</time>
      </trkpt>
      <trkpt lat="47.93048" lon="2.15312">
        <ele>110</ele>
        <time>2020-01-29T15:23:24.000Z</time>
      </trkpt>
      <trkpt lat="47.9304" lon="2.15279">
        <ele>109</ele>
        <time>2020-01-29T15:23:33.000Z</time>
      </trkpt>
      <trkpt lat="47.9303" lon="2.15246">
        <ele>109</ele>
        <time>2020-01-29T15:23:47.000Z</time>
      </trkpt>
      <trkpt lat="47.93021" lon="2.15215">
        <ele>110</ele>
        <time>2020-01-29T15:23:56.000Z</time>
      </trkpt>
      <trkpt lat="47.93013" lon="2.15181">
        <ele>110</ele>
        <time>2020-01-29T15:24:05.000Z</time>
      </trkpt>
      <trkpt lat="47.93012" lon="2.15145">
        <ele>110</ele>
        <time>2020-01-29T15:24:14.000Z</time>
      </trkpt>
      <trkpt lat="47.93011" lon="2.15108">
        <ele>110</ele>
        <time>2020-01-29T15:24:25.000Z</time>
      </trkpt>
      <trkpt lat="47.93005" lon="2.15075">
        <ele>110</ele>
        <time>2020-01-29T15:24:36.000Z</time>
      </trkpt>
      <trkpt lat="47.92987" lon="2.15053">
        <ele>111</ele>
        <time>2020-01-29T15:24:45.000Z</time>
      </trkpt>
      <trkpt lat="47.92968" lon="2.15032">
        <ele>111</ele>
        <time>2020-01-29T15:24:55.000Z</time>
      </trkpt>
      <trkpt lat="47.92947" lon="2.15012">
        <ele>110</ele>
        <time>2020-01-29T15:25:11.000Z</time>
      </trkpt>
      <trkpt lat="47.92926" lon="2.14991">
        <ele>110</ele>
        <time>2020-01-29T15:25:20.000Z</time>
      </trkpt>
      <trkpt lat="47.92908" lon="2.14972">
        <ele>110</ele>
        <time>2020-01-29T15:25:27.000Z</time>
      </trkpt>
      <trkpt lat="47.92887" lon="2.14954">
        <ele>111</ele>
        <time>2020-01-29T15:25:35.000Z</time>
      </trkpt>
      <trkpt lat="47.92867" lon="2.14932">
        <ele>111</ele>
        <time>2020-01-29T15:25:43.000Z</time>
      </trkpt>
      <trkpt lat="47.92847" lon="2.14914">
        <ele>111</ele>
        <time>2020-01-29T15:25:53.000Z</time>
      </trkpt>
      <trkpt lat="47.92828" lon="2.14894">
        <ele>110</ele>
        <time>2020-01-29T15:26:02.000Z</time>
      </trkpt>
      <trkpt lat="47.92808" lon="2.14877">
        <ele>109</ele>
        <time>2020-01-29T15:26:10.000Z</time>
      </trkpt>
      <trkpt lat="47.9279" lon="2.14857">
        <ele>110</ele>
        <time>2020-01-29T15:26:18.000Z</time>
      </trkpt>
      <trkpt lat="47.92772" lon="2.14834">
        <ele>110</ele>
        <time>2020-01-29T15:26:26.000Z</time>
      </trkpt>
      <trkpt lat="47.92753" lon="2.14812">
        <ele>109</ele>
        <time>2020-01-29T15:26:34.000Z</time>
      </trkpt>
      <trkpt lat="47.92732" lon="2.14796">
        <ele>109</ele>
        <time>2020-01-29T15:26:42.000Z</time>
      </trkpt>
      <trkpt lat="47.9271" lon="2.14781">
        <ele>110</ele>
        <time>2020-01-29T15:26:53.000Z</time>
      </trkpt>
      <trkpt lat="47.92689" lon="2.14767">
        <ele>110</ele>
        <time>2020-01-29T15:27:01.000Z</time>
      </trkpt>
      <trkpt lat="47.92667" lon="2.14756">
        <ele>109</ele>
        <time>2020-01-29T15:27:09.000Z</time>
      </trkpt>
      <trkpt lat="47.92644" lon="2.14744">
        <ele>109</ele>
        <time>2020-01-29T15:27:18.000Z</time>
      </trkpt>
      <trkpt lat="47.92623" lon="2.14731">
        <ele>109</ele>
        <time>2020-01-29T15:27:25.000Z</time>
      </trkpt>
      <trkpt lat="47.92601" lon="2.14712">
        <ele>109</ele>
        <time>2020-01-29T15:27:34.000Z</time>
      </trkpt>
      <trkpt lat="47.92582" lon="2.1469">
        <ele>109</ele>
        <time>2020-01-29T15:27:42.000Z</time>
      </trkpt>
      <trkpt lat="47.92562" lon="2.14669">
        <ele>108</ele>
        <time>2020-01-29T15:27:52.000Z</time>
      </trkpt>
      <trkpt lat="47.92543" lon="2.14651">
        <ele>108</ele>
        <time>2020-01-29T15:28:19.000Z</time>
      </trkpt>
      <trkpt lat="47.9252" lon="2.14642">
        <ele>108</ele>
        <time>2020-01-29T15:28:29.000Z</time>
      </trkpt>
      <trkpt lat="47.925" lon="2.1462">
        <ele>108</ele>
        <time>2020-01-29T15:28:37.000Z</time>
      </trkpt>
      <trkpt lat="47.92481" lon="2.14603">
        <ele>108</ele>
        <time>2020-01-29T15:28:44.000Z</time>
      </trkpt>
      <trkpt lat="47.92458" lon="2.14584">
        <ele>108</ele>
        <time>2020-01-29T15:28:52.000Z</time>
      </trkpt>
      <trkpt lat="47.92438" lon="2.14566">
        <ele>108</ele>
        <time>2020-01-29T15:28:59.000Z</time>
      </trkpt>
      <trkpt lat="47.92418" lon="2.14547">
        <ele>108</ele>
        <time>2020-01-29T15:29:07.000Z</time>
      </trkpt>
      <trkpt lat="47.92398" lon="2.14526">
        <ele>108</ele>
        <time>2020-01-29T15:29:15.000Z</time>
      </trkpt>
      <trkpt lat="47.9238" lon="2.14506">
        <ele>108</ele>
        <time>2020-01-29T15:29:24.000Z</time>
      </trkpt>
      <trkpt lat="47.92363" lon="2.14482">
        <ele>108</ele>
        <time>2020-01-29T15:29:33.000Z</time>
      </trkpt>
      <trkpt lat="47.92345" lon="2.14459">
        <ele>108</ele>
        <time>2020-01-29T15:29:42.000Z</time>
      </trkpt>
      <trkpt lat="47.92329" lon="2.14435">
        <ele>108</ele>
        <time>2020-01-29T15:29:51.000Z</time>
      </trkpt>
      <trkpt lat="47.92327" lon="2.14401">
        <ele>108</ele>
        <time>2020-01-29T15:30:00.000Z</time>
      </trkpt>
      <trkpt lat="47.9234" lon="2.14371">
        <ele>108</ele>
        <time>2020-01-29T15:33:47.000Z</time>
      </trkpt>
      <trkpt lat="47.92358" lon="2.14344">
        <ele>108</ele>
        <time>2020-01-29T15:33:56.000Z</time>
      </trkpt>
      <trkpt lat="47.92375" lon="2.14321">
        <ele>108</ele>
        <time>2020-01-29T15:34:03.000Z</time>
      </trkpt>
      <trkpt lat="47.92393" lon="2.14297">
        <ele>108</ele>
        <time>2020-01-29T15:34:10.000Z</time>
      </trkpt>
      <trkpt lat="47.92412" lon="2.14277">
        <ele>107</ele>
        <time>2020-01-29T15:34:18.000Z</time>
      </trkpt>
      <trkpt lat="47.92428" lon="2.14253">
        <ele>107</ele>
        <time>2020-01-29T15:34:27.000Z</time>
      </trkpt>
      <trkpt lat="47.92445" lon="2.14228">
        <ele>107</ele>
        <time>2020-01-29T15:34:35.000Z</time>
      </trkpt>
      <trkpt lat="47.92461" lon="2.14203">
        <ele>107</ele>
        <time>2020-01-29T15:34:44.000Z</time>
      </trkpt>
      <trkpt lat="47.92477" lon="2.14178">
        <ele>107</ele>
        <time>2020-01-29T15:34:54.000Z</time>
      </trkpt>
      <trkpt lat="47.92492" lon="2.1415">
        <ele>107</ele>
        <time>2020-01-29T15:35:03.000Z</time>
      </trkpt>
      <trkpt lat="47.9251" lon="2.14127">
        <ele>107</ele>
        <time>2020-01-29T15:35:29.000Z</time>
      </trkpt>
      <trkpt lat="47.9252" lon="2.14096">
        <ele>107</ele>
        <time>2020-01-29T15:35:45.000Z</time>
      </trkpt>
      <trkpt lat="47.92502" lon="2.14075">
        <ele>107</ele>
        <time>2020-01-29T15:35:55.000Z</time>
      </trkpt>
      <trkpt lat="47.92501" lon="2.14047">
        <ele>107</ele>
        <time>2020-01-29T15:36:10.000Z</time>
      </trkpt>
      <trkpt lat="47.92519" lon="2.14023">
        <ele>107</ele>
        <time>2020-01-29T15:36:24.000Z</time>
      </trkpt>
      <trkpt lat="47.92537" lon="2.14001">
        <ele>107</ele>
        <time>2020-01-29T15:36:32.000Z</time>
      </trkpt>
      <trkpt lat="47.92554" lon="2.13976">
        <ele>106</ele>
        <time>2020-01-29T15:36:42.000Z</time>
      </trkpt>
      <trkpt lat="47.92578" lon="2.13974">
        <ele>107</ele>
        <time>2020-01-29T15:37:19.000Z</time>
      </trkpt>
      <trkpt lat="47.92597" lon="2.13993">
        <ele>107</ele>
        <time>2020-01-29T15:37:28.000Z</time>
      </trkpt>
      <trkpt lat="47.92616" lon="2.14012">
        <ele>107</ele>
        <time>2020-01-29T15:37:37.000Z</time>
      </trkpt>
      <trkpt lat="47.92635" lon="2.1403">
        <ele>107</ele>
        <time>2020-01-29T15:37:47.000Z</time>
      </trkpt>
      <trkpt lat="47.92653" lon="2.14052">
        <ele>107</ele>
        <time>2020-01-29T15:38:05.000Z</time>
      </trkpt>
      <trkpt lat="47.92675" lon="2.14038">
        <ele>107</ele>
        <time>2020-01-29T15:38:19.000Z</time>
      </trkpt>
      <trkpt lat="47.92689" lon="2.14011">
        <ele>107</ele>
        <time>2020-01-29T15:38:30.000Z</time>
      </trkpt>
      <trkpt lat="47.92706" lon="2.13988">
        <ele>106</ele>
        <time>2020-01-29T15:38:40.000Z</time>
      </trkpt>
      <trkpt lat="47.92719" lon="2.13956">
        <ele>106</ele>
        <time>2020-01-29T15:40:34.000Z</time>
      </trkpt>
      <trkpt lat="47.92746" lon="2.13926">
        <ele>106</ele>
        <time>2020-01-29T15:40:45.000Z</time>
      </trkpt>
      <trkpt lat="47.92766" lon="2.13947">
        <ele>106</ele>
        <time>2020-01-29T15:41:01.000Z</time>
      </trkpt>
      <trkpt lat="47.92785" lon="2.13971">
        <ele>106</ele>
        <time>2020-01-29T15:41:40.000Z</time>
      </trkpt>
      <trkpt lat="47.92805" lon="2.13993">
        <ele>106</ele>
        <time>2020-01-29T15:41:54.000Z</time>
      </trkpt>
      <trkpt lat="47.92819" lon="2.1401">
        <ele>106</ele>
        <time>2020-01-29T15:42:10.000Z</time>
      </trkpt>
    </trkseg>
  </trk>
</gpx>